Flight Track Log - Related Links

Times and Time Zones

All times are in EDT time to prevent confusion due to time zone crossing. See the N53NW flight status page for this flight to view local times or setup timezone preferences in your user account.

Time Position Orientation Groundspeed Altitude Reporting Facility
EDT Latitude Longitude Course Direction KTS MPH feet Rate Location/Type
Wed 04:50:08 PM 40.3267 -85.3811 39° Northeast 230 265 6,700  Level Indianapolis Center
Wed 04:51:10 PM 40.3814 -85.3239 39° Northeast 252 290 10,500 3,522 Climbing Indianapolis Center
Wed 04:51:40 PM 40.4036 -85.2994 40° Northeast 255 293 12,100 3,326 Climbing Chicago Center
Wed 04:52:42 PM 40.4672 -85.2514 30° Northeast 262 302 15,600 3,290 Climbing Chicago Center
Wed 04:53:44 PM 40.5458 -85.1964 28° Northeast 267 307 18,900 1,645 Climbing Chicago Center
Wed 04:54:46 PM 40.6250 -85.1394 29° Northeast 330 380 19,000 48 Climbing Chicago Center
Wed 04:55:48 PM 40.7117 -85.0747 30° Northeast 333 383 19,000  Level Chicago Center
Wed 04:56:50 PM 40.7903 -85.0172 29° Northeast 327 376 19,000  Level Chicago Center
Wed 04:57:52 PM 40.8692 -84.9600 29° Northeast 325 374 19,000  Level Chicago Center
Wed 04:58:54 PM 40.9489 -84.9022 29° Northeast 327 376 19,000  Level Chicago Center
Wed 04:59:56 PM 41.0294 -84.8431 29° Northeast 330 380 19,000  Level Chicago Center
Wed 05:00:59 PM 41.1100 -84.7847 29° Northeast 332 382 19,000  Level Chicago Center
Wed 05:02:01 PM 41.2053 -84.7147 29° Northeast 329 379 19,000  Level Chicago Center
Wed 05:03:03 PM 41.2858 -84.6556 29° Northeast 331 381 19,000  Level Chicago Center
Wed 05:04:05 PM 41.3656 -84.5972 29° Northeast 330 380 19,000 -194 Level Chicago Center
Wed 05:05:07 PM 41.4453 -84.5378 29° Northeast 330 380 18,600 -968 Descending Chicago Center
Wed 05:06:09 PM 41.5256 -84.4778 29° Northeast 332 382 17,000 -2,032 Descending Chicago Center
Wed 05:07:11 PM 41.6214 -84.4072 29° Northeast 330 380 14,400 -2,380 Descending Chicago Center
Wed 05:08:10 PM 41.6978 -84.3544 27° Northeast 319 367 12,200 -2,168 Descending Cleveland Center
Wed 05:09:10 PM 41.7706 -84.2975 30° Northeast 314 361 10,100 -2,222 Descending Cleveland Center
Wed 05:09:31 PM 41.7919 -84.2792 33° Northeast 277 319 9,200 -2,000 Descending Cleveland Center
Wed 05:10:10 PM 41.8261 -84.2533 29° Northeast 291 335 8,100 -2,066 Descending Cleveland Center
Wed 05:10:32 PM 41.8581 -84.2300 29° Northeast 265 305 7,100 -1,100 Descending Cleveland Center
Wed 05:11:10 PM 41.8881 -84.2067 30° Northeast 263 303 7,000 -100 Descending Cleveland Center
Wed 05:11:32 PM 41.9222 -84.1833 27° Northeast 258 297 7,000  Level Cleveland Center
Wed 05:12:10 PM 41.9500 -84.1572 35° Northeast 255 293 7,000  Level Cleveland Center
Wed 05:12:34 PM 41.9861 -84.1394 20° North 266 306 7,000  Level Cleveland Center
Wed 05:13:10 PM 42.0200 -84.1192 24° Northeast 255 293 7,000  Level Cleveland Center
Wed 05:13:28 PM 42.0517 -84.1097 12° North 263 303 7,000  Level Cleveland Center
Wed 05:14:10 PM 42.0878 -84.0892 23° Northeast 255 293 7,000 -492 Level Cleveland Center
Wed 05:14:29 PM 42.1175 -84.0742 21° North 264 304 6,500 -1,425 Descending Cleveland Center
Wed 05:15:30 PM 42.1792 -84.0269 30° Northeast 257 296 5,100 -1,230 Descending Cleveland Center
Wed 05:16:31 PM 42.2453 -83.9800 28° Northeast 251 289 4,000 -574 Descending Cleveland Center
Wed 05:17:25 PM 42.3006 -83.9467 24° Northeast 251 289 4,000  Level Cleveland Center
Wed 05:18:26 PM 42.3686 -83.9025 26° Northeast 255 293 4,000  Level Cleveland Center
Wed 05:19:21 PM 42.4217 -83.8658 27° Northeast 248 285 4,000  Level Cleveland Center
Wed 05:20:28 PM 42.4919 -83.8158 28° Northeast 246 283 4,000  Level Cleveland Center
Wed 05:21:29 PM 42.5494 -83.7739 28° Northeast 206 237 4,000  Level Cleveland Center
Wed 05:22:30 PM 42.6003 -83.7425 24° Northeast 199 229 4,000  Level Cleveland Center
Wed 05:23:31 PM 42.6392 -83.6964 41° Northeast 200 230 4,000 -52 Level Cleveland Center
Wed 05:24:25 PM 42.6553 -83.6350 70° East 189 217 3,900 -574 Descending Cleveland Center
Wed 05:25:26 PM 42.6611 -83.5733 83° East 164 189 2,900 -836 Descending Cleveland Center
Wed 05:26:27 PM 42.6625 -83.5169 88° East 124 143 2,200 -639 Descending Cleveland Center
Wed 05:27:28 PM 42.6636 -83.4747 88° East 108 124 1,600 -590 Descending Cleveland Center

Login

Don't have an account? Register now (free) for customized features, flight alerts, and more!